Yemassee, SC

9:45 AM EDT on July 24, 2014 (GMT -0400)
Beaufort (KARW) Elev 10 ft | 32.41 °N, 80.63 °W | Change Station

Current weather conditions updated 10 minutes ago

Clear
Clear
84 °F
Feels Like 92 °F
N
10
Wind Variable Wind from West

Today is forecast to be Warmer than yesterday. Isolated thunderstorms tonight.

Today
High -- | Low -- °F
--% Chance of Precip.
Yesterday
High -- | Low -- °F
Precip. -- in
6:31 AM 8:26 PM
Waning Crescent, 5% visible
Pressure 29.99 in
Visibility 10.0 miles
Clouds Clear
Heat Index 92 °F
Dew Point 75 °F
Humidity 74%
Rainfall 0.00 in
Snow Depth Not available.
UV 5 out of 12
Pollen 4.50 out of 12
Air Quality Not available.
Flu Activity Not available.
METAR KARW 241335Z AUTO 26009KT 10SM CLR 29/24 A2999 RMK AO2

More Conditions Fewer Conditions

Pressure 29.99 in
Visibility 10.0 miles
Clouds Clear
Heat Index 92 °F
Dew Point 75 °F
Humidity 74%
Rainfall 0.00 in
Snow Depth Not available.
UV 5 out of 12
Pollen 4.50 out of 12
Air Quality Not available.
Flu Activity Not available.
METAR KARW 241335Z AUTO 26009KT 10SM CLR 29/24 A2999 RMK AO2

More Conditions Fewer Conditions

10-Day Weather Forecast

Almanac

Astronomy

Jul. 24, 2014 Rise Set
Actual Time 6:31 AM EDT 8:26 PM EDT
Civil Twilight 6:04 AM EDT 8:54 PM EDT
Nautical Twilight 5:31 AM EDT 9:27 PM EDT
Astronomical Twilight 4:55 AM EDT 10:02 PM EDT
Moon 4:37 AM EDT 6:42 PM EDT
Length of Visible Light 14h 49m
Length of Day
13h 55m
Tomorrow will be 1m 17s shorter.
Waning Crescent, 5% of the Moon is Illuminated
Today
Waning Crescent
Jul 26
New
Aug 3
First Quarter
Aug 10
Full
Aug 17
Last Quarter

Today's Extremes

State Highs State Lows

Community

WunderPhotos

Upload Photos

1,736,999 photos uploaded!

Nearby

Snow Depth

Station Depth Elevation
No new snow has been reported.

Earthquake Activity

City Distance Mag. Time & Date
No recent earthquake activity has been reported nearby.
Minimum magnitude displayed is 2.5.

Coastal Water Temperatures

Place Temperature
No Stations Reporting

Nearby Weather Stations

Station Location Temp. Heat Index Dew Point Humidity Wind Precip. Elev Updated Type
RAWS SAVANNAH PORTABLE SC, Yemassee, SC 80 °F 86 °F 77 °F 90% WSW  at  2 mph 0.00 in / hr 6 ft 8:23 AM EDT MADIS
Beaufort, SC 85.5 °F 97 °F 78 °F 77% WSW  at  0.0 mph 0.00 in / hr 13 ft 9:45 AM EDT Normal
RAWS ACE BASIN SC, Green Pond, SC 82 °F 90 °F 76 °F 83% West  at  5 mph 0.00 in / hr 8 ft 8:55 AM EDT MADIS
Middleton, Edisto Island, SC 79.7 °F 84 °F 74 °F 83% WNW  at  9.9 mph - / hr 13 ft 9:42 AM EDT Normal
Colleton River, Bluffton, SC 82.3 °F 90 °F 77 °F 83% WNW  at  0.0 mph 0.00 in / hr 20 ft 9:44 AM EDT Normal
Sandy Creek, Edisto Island, SC 85.0 °F 96 °F 77 °F 78% WNW  at  4.0 mph 0.00 in / hr 20 ft 9:45 AM EDT Rapid Fire
Mariners Cove, Okatie, SC 84.6 °F 95 °F 77 °F 78% NNW  at  3.0 mph 0.00 in / hr 18 ft 9:44 AM EDT Rapid Fire

Show More Stations Show Fewer Stations